Time;durP1;ratioP1;P1;durP2;ratioP2;P2;SDS_P1;SDS_P2;PMS_P1;PMS_P2;Temp;Humidity;BMP_temperature;BMP_pressure;BME280_temperature;BME280_humidity;BME280_pressure;Samples;Min_cycle;Max_cycle;Signal;HPM_P1;HPM_P2
2022/05/12 00:00:41;;;;;;;0.63;0.60;;;20.60;52.50;;;;;;6265616;28;20077;-70
2022/05/12 00:03:41;;;;;;;0.50;0.50;;;20.60;52.50;;;;;;6265278;28;20022;-70
2022/05/12 00:06:42;;;;;;;1.17;0.57;;;20.60;52.50;;;;;;6265771;28;20142;-70
2022/05/12 00:09:42;;;;;;;0.50;0.50;;;20.60;52.50;;;;;;6247477;28;20127;-70
2022/05/12 00:12:44;;;;;;;0.70;0.50;;;20.60;52.50;;;;;;6265579;28;20028;-70
2022/05/12 00:15:45;;;;;;;1.08;0.73;;;20.60;52.50;;;;;;6247611;28;20040;-71
2022/05/12 00:18:47;;;;;;;0.85;0.68;;;20.60;52.50;;;;;;6251182;28;20132;-71
2022/05/12 00:21:47;;;;;;;0.82;0.50;;;20.60;52.50;;;;;;6269642;28;20074;-70
2022/05/12 00:24:48;;;;;;;0.60;0.60;;;20.60;52.60;;;;;;6251921;28;20124;-71
2022/05/12 00:27:49;;;;;;;0.63;0.63;;;20.60;52.50;;;;;;6251607;28;20024;-70
2022/05/12 00:30:51;;;;;;;0.80;0.50;;;20.60;53.20;;;;;;6251758;28;20116;-70
2022/05/12 00:33:52;;;;;;;0.80;0.63;;;20.60;52.50;;;;;;6269665;28;20030;-70
2022/05/12 00:36:52;;;;;;;1.27;0.65;;;20.60;52.50;;;;;;6269587;28;20032;-70
2022/05/12 00:39:53;;;;;;;0.50;0.50;;;20.60;52.50;;;;;;6269626;28;20050;-71
2022/05/12 00:42:56;;;;;;;0.98;0.63;;;20.60;52.50;;;;;;6269348;28;20036;-70
2022/05/12 00:45:56;;;;;;;0.93;0.70;;;20.60;52.50;;;;;;6251509;28;20021;-70
2022/05/12 00:49:23;;;;;;;0.52;0.52;;;20.60;52.50;;;;;;6251377;28;20132;-70
2022/05/12 00:52:29;;;;;;;0.70;0.60;;;20.60;52.50;;;;;;6269183;28;20065;-70
2022/05/12 00:55:36;;;;;;;0.70;0.60;;;20.60;52.50;;;;;;6268987;28;20395;-70
2022/05/12 00:58:37;;;;;;;0.70;0.60;;;20.60;52.60;;;;;;6268815;28;20029;-69
2022/05/12 01:01:38;;;;;;;0.70;0.63;;;20.60;52.50;;;;;;6250789;28;20032;-70
2022/05/12 01:04:39;;;;;;;0.73;0.60;;;20.60;52.50;;;;;;6268979;28;20736;-69
2022/05/12 01:07:40;;;;;;;0.40;0.40;;;20.60;52.50;;;;;;6269075;28;20100;-70
2022/05/12 01:10:45;;;;;;;0.82;0.60;;;20.60;52.50;;;;;;6268749;28;20124;-70
2022/05/12 01:13:54;;;;;;;0.50;0.50;;;20.60;52.50;;;;;;6268584;28;20281;-71
2022/05/12 01:17:01;;;;;;;0.60;0.50;;;20.60;52.50;;;;;;6268786;28;20033;-70
2022/05/12 01:20:02;;;;;;;1.52;0.80;;;20.60;53.30;;;;;;6268710;28;20021;-67
2022/05/12 01:23:25;;;;;;;0.52;0.52;;;20.60;52.50;;;;;;6268506;28;20515;-71
2022/05/12 01:26:26;;;;;;;0.68;0.60;;;20.60;52.50;;;;;;6250523;28;20108;-71
2022/05/12 01:29:27;;;;;;;0.57;0.50;;;20.60;52.50;;;;;;6267543;28;20017;-70
2022/05/12 01:32:28;;;;;;;0.70;0.70;;;20.60;52.60;;;;;;6250266;28;20114;-70
2022/05/12 01:35:29;;;;;;;0.63;0.47;;;20.60;52.60;;;;;;6268183;28;20583;-71
2022/05/12 01:38:30;;;;;;;0.60;0.60;;;20.60;52.60;;;;;;6268277;28;20017;-71
2022/05/12 01:41:30;;;;;;;0.70;0.60;;;20.60;52.50;;;;;;6250330;28;20021;-70
2022/05/12 01:44:31;;;;;;;0.82;0.60;;;20.60;52.50;;;;;;6267794;28;20087;-70
2022/05/12 01:47:34;;;;;;;0.65;0.65;;;20.60;52.60;;;;;;6249938;28;20021;-71
2022/05/12 01:50:36;;;;;;;0.57;0.57;;;20.60;52.60;;;;;;6249592;28;20025;-70
2022/05/12 01:53:37;;;;;;;0.50;0.50;;;20.60;52.60;;;;;;6267570;28;20040;-70
2022/05/12 01:56:37;;;;;;;0.63;0.63;;;20.60;52.50;;;;;;6267570;28;20021;-70
2022/05/12 01:59:38;;;;;;;0.80;0.80;;;20.60;52.60;;;;;;6267546;28;20059;-70
2022/05/12 02:02:39;;;;;;;0.55;0.55;;;20.60;52.60;;;;;;6267438;28;20110;-70
2022/05/12 02:05:41;;;;;;;0.85;0.55;;;20.60;52.60;;;;;;6267386;28;20021;-70
2022/05/12 02:08:42;;;;;;;0.52;0.50;;;20.60;52.70;;;;;;6249388;28;20704;-70
2022/05/12 02:11:43;;;;;;;0.43;0.43;;;20.60;52.60;;;;;;6249463;28;20028;-70
2022/05/12 02:14:44;;;;;;;0.50;0.50;;;20.60;52.60;;;;;;6267144;28;20491;-71
2022/05/12 02:17:45;;;;;;;0.55;0.55;;;20.60;52.60;;;;;;6249716;28;20029;-70
2022/05/12 02:20:46;;;;;;;0.50;0.50;;;20.60;52.50;;;;;;6249398;28;20041;-70
2022/05/12 02:23:47;;;;;;;1.02;0.60;;;20.60;52.60;;;;;;6249009;28;20032;-70
2022/05/12 02:26:47;;;;;;;0.60;0.55;;;20.60;52.60;;;;;;6266859;28;20087;-71
2022/05/12 02:29:48;;;;;;;0.50;0.50;;;20.60;52.60;;;;;;6249015;28;20037;-70
2022/05/12 02:32:48;;;;;;;0.70;0.60;;;20.60;52.60;;;;;;6266983;28;20028;-70
2022/05/12 02:35:49;;;;;;;0.65;0.57;;;20.60;52.60;;;;;;6266767;28;20033;-70
2022/05/12 02:38:50;;;;;;;0.77;0.70;;;20.60;52.60;;;;;;6249135;28;20043;-69
2022/05/12 02:41:50;;;;;;;0.50;0.50;;;20.60;52.70;;;;;;6266206;28;20033;-70
2022/05/12 02:44:51;;;;;;;0.70;0.70;;;20.60;52.60;;;;;;6248820;28;20028;-71
2022/05/12 02:47:52;;;;;;;0.60;0.52;;;20.60;52.60;;;;;;6266424;28;20020;-70
2022/05/12 02:50:54;;;;;;;0.55;0.55;;;20.60;52.60;;;;;;6266724;28;20388;-70
2022/05/12 02:53:54;;;;;;;0.93;0.47;;;20.60;52.60;;;;;;6266026;28;20039;-69
2022/05/12 02:56:55;;;;;;;0.80;0.70;;;20.60;52.70;;;;;;6249696;28;20487;-69
2022/05/12 02:59:56;;;;;;;0.75;0.57;;;20.60;52.60;;;;;;6249120;28;20079;-71
2022/05/12 03:02:57;;;;;;;0.60;0.60;;;20.60;52.60;;;;;;6249397;28;20479;-70
2022/05/12 03:05:59;;;;;;;0.82;0.70;;;20.60;52.60;;;;;;6265982;28;20554;-70
2022/05/12 03:08:59;;;;;;;0.50;0.50;;;20.60;52.60;;;;;;6265934;28;20053;-70
2022/05/12 03:12:00;;;;;;;0.95;0.60;;;20.60;52.60;;;;;;6266065;28;20025;-71
2022/05/12 03:15:00;;;;;;;0.50;0.50;;;20.60;52.60;;;;;;6247868;28;20025;-70
2022/05/12 03:18:01;;;;;;;0.50;0.50;;;20.60;52.60;;;;;;6247951;28;20094;-70
2022/05/12 03:21:02;;;;;;;0.50;0.50;;;20.60;52.60;;;;;;6266032;28;20032;-70
2022/05/12 03:24:04;;;;;;;0.68;0.57;;;20.60;52.60;;;;;;6266072;28;20021;-71
2022/05/12 03:27:05;;;;;;;0.50;0.50;;;20.60;52.70;;;;;;6248259;28;20077;-70
2022/05/12 03:30:10;;;;;;;0.50;0.50;;;20.60;52.60;;;;;;6247902;28;20017;-70
2022/05/12 03:33:11;;;;;;;0.50;0.50;;;20.60;52.60;;;;;;6265744;28;20029;-70
2022/05/12 03:36:11;;;;;;;0.43;0.40;;;20.60;52.60;;;;;;6247390;28;20028;-71
2022/05/12 03:39:12;;;;;;;0.63;0.43;;;20.60;52.60;;;;;;6247879;28;20032;-69
2022/05/12 03:42:15;;;;;;;0.63;0.63;;;20.60;52.60;;;;;;6247541;28;20383;-70
2022/05/12 03:45:15;;;;;;;0.57;0.50;;;20.60;52.70;;;;;;6265396;28;20021;-69
2022/05/12 03:48:16;;;;;;;0.55;0.50;;;20.60;53.40;;;;;;6247217;28;20048;-69
2022/05/12 03:51:17;;;;;;;0.35;0.35;;;20.60;52.60;;;;;;6247522;28;20024;-69
2022/05/12 03:54:19;;;;;;;0.50;0.50;;;20.60;52.70;;;;;;6269828;28;20047;-69
2022/05/12 03:57:21;;;;;;;0.65;0.50;;;20.60;52.60;;;;;;6270257;28;20028;-69
2022/05/12 04:00:26;;;;;;;0.57;0.40;;;20.60;52.70;;;;;;6252264;28;20025;-70
2022/05/12 04:03:27;;;;;;;;;;;20.60;52.70;;;;;;6270340;28;20021;-71
2022/05/12 04:06:27;;;;;;;0.70;0.60;;;20.60;52.70;;;;;;6269993;28;19904;-71
2022/05/12 04:09:28;;;;;;;0.50;0.50;;;20.60;52.70;;;;;;6269336;28;20045;-71
2022/05/12 04:12:28;;;;;;;0.50;0.50;;;20.60;52.70;;;;;;6252086;28;20028;-70
2022/05/12 04:15:29;;;;;;;0.60;0.60;;;20.60;52.70;;;;;;6269388;28;20021;-70
2022/05/12 04:18:30;;;;;;;0.85;0.50;;;20.60;52.70;;;;;;6269915;28;20055;-71
2022/05/12 04:21:31;;;;;;;1.55;0.60;;;20.60;52.70;;;;;;6269466;28;20380;-71
2022/05/12 04:24:32;;;;;;;0.52;0.50;;;20.60;52.80;;;;;;6251562;28;20070;-71
2022/05/12 04:27:36;;;;;;;0.50;0.40;;;20.60;52.70;;;;;;6269390;28;20044;-70
2022/05/12 04:30:38;;;;;;;0.52;0.50;;;20.60;52.80;;;;;;6269668;28;20029;-70
2022/05/12 04:36:58;;;;;;;0.50;0.50;;;20.60;52.80;;;;;;6269412;28;20049;-68
2022/05/12 04:40:10;;;;;;;0.52;0.50;;;20.60;52.70;;;;;;6268946;28;20027;-67
2022/05/12 04:43:11;;;;;;;0.40;0.40;;;20.60;52.70;;;;;;6251171;28;20671;-69
2022/05/12 04:46:12;;;;;;;0.68;0.50;;;20.60;52.70;;;;;;6250973;28;20070;-69
2022/05/12 04:49:16;;;;;;;1.60;0.50;;;20.60;52.70;;;;;;6268834;28;20566;-69
2022/05/12 04:52:16;;;;;;;0.75;0.57;;;20.60;52.80;;;;;;6269193;28;20017;-69
2022/05/12 04:55:18;;;;;;;0.77;0.50;;;20.60;52.70;;;;;;6268787;28;20040;-69
2022/05/12 04:58:18;;;;;;;0.55;0.50;;;20.60;52.80;;;;;;6269177;28;20056;-69
2022/05/12 05:01:19;;;;;;;0.52;0.50;;;20.60;52.80;;;;;;6263266;28;20559;-70
2022/05/12 05:04:20;;;;;;;0.50;0.50;;;20.60;52.80;;;;;;6243849;28;20018;-69
2022/05/12 05:07:22;;;;;;;0.57;0.57;;;20.60;52.80;;;;;;6243674;28;20017;-69
2022/05/12 05:10:23;;;;;;;0.35;0.35;;;20.60;52.80;;;;;;6223444;28;20132;-69
2022/05/12 05:13:24;;;;;;;0.60;0.50;;;20.60;52.80;;;;;;6247451;28;20029;-68
2022/05/12 05:16:25;;;;;;;0.50;0.50;;;20.60;52.80;;;;;;6267286;28;20036;-68
2022/05/12 05:19:25;;;;;;;0.50;0.50;;;20.60;52.80;;;;;;6251968;28;20033;-68
2022/05/12 05:22:26;;;;;;;0.93;0.52;;;20.60;52.80;;;;;;6246645;28;20478;-68
2022/05/12 05:25:27;;;;;;;0.45;0.40;;;20.60;52.70;;;;;;6257428;28;20035;-69
2022/05/12 05:28:27;;;;;;;0.40;0.40;;;20.60;52.60;;;;;;6266953;28;20017;-67
2022/05/12 05:31:28;;;;;;;1.17;0.47;;;20.60;52.70;;;;;;6267214;28;20060;-69
2022/05/12 05:34:30;;;;;;;0.70;0.50;;;20.60;52.70;;;;;;6267104;28;20369;-69
2022/05/12 05:37:31;;;;;;;0.50;0.50;;;20.60;52.80;;;;;;6267171;28;20025;-69
2022/05/12 05:40:32;;;;;;;2.42;0.60;;;20.60;52.80;;;;;;6249324;28;20144;-69
2022/05/12 05:43:33;;;;;;;0.85;0.55;;;20.60;52.80;;;;;;6249565;28;20458;-69
2022/05/12 05:46:34;;;;;;;0.50;0.50;;;20.60;52.80;;;;;;6249490;28;20025;-69
2022/05/12 05:49:36;;;;;;;0.60;0.60;;;20.60;52.80;;;;;;6243429;28;20127;-69
2022/05/12 05:55:58;;;;;;;1.15;0.65;;;20.60;52.80;;;;;;6266800;28;20025;-69
2022/05/12 05:58:59;;;;;;;0.60;0.50;;;20.60;52.80;;;;;;6249040;28;20029;-69
2022/05/12 06:02:01;;;;;;;1.02;0.60;;;20.60;52.80;;;;;;6243544;28;20075;-69
2022/05/12 06:05:02;;;;;;;0.80;0.75;;;20.60;52.90;;;;;;6226308;28;20052;-69
2022/05/12 06:08:04;;;;;;;0.50;0.50;;;20.60;52.80;;;;;;6243847;28;20036;-68
2022/05/12 06:11:04;;;;;;;0.63;0.60;;;20.60;52.80;;;;;;6243730;28;20045;-69
2022/05/12 06:14:05;;;;;;;0.55;0.55;;;20.60;52.80;;;;;;6243419;28;20499;-68
2022/05/12 06:17:06;;;;;;;1.10;0.60;;;20.60;52.90;;;;;;6249976;28;20036;-68
2022/05/12 06:20:12;;;;;;;0.90;0.60;;;20.60;52.80;;;;;;6268105;28;20056;-69
2022/05/12 06:23:13;;;;;;;0.68;0.65;;;20.60;52.80;;;;;;6264823;28;20102;-69
2022/05/12 06:26:14;;;;;;;0.50;0.40;;;20.60;52.90;;;;;;6242209;28;20028;-68
2022/05/12 06:29:15;;;;;;;0.85;0.60;;;20.60;52.80;;;;;;6225819;28;20018;-69
2022/05/12 06:32:17;;;;;;;0.63;0.60;;;20.60;52.90;;;;;;6243002;28;20451;-70
2022/05/12 06:35:20;;;;;;;1.15;0.70;;;20.60;52.90;;;;;;6268388;28;20438;-69
2022/05/12 06:38:20;;;;;;;0.75;0.50;;;20.60;52.90;;;;;;6249987;28;20024;-69
2022/05/12 06:41:23;;;;;;;0.55;0.47;;;20.60;52.80;;;;;;6267632;28;20033;-69
2022/05/12 06:44:24;;;;;;;0.93;0.60;;;20.60;52.90;;;;;;6258931;28;20064;-69
2022/05/12 06:47:25;;;;;;;0.85;0.50;;;20.70;53.20;;;;;;6267528;28;20031;-68
2022/05/12 06:50:28;;;;;;;0.55;0.45;;;20.70;52.90;;;;;;6267546;28;20637;-69
2022/05/12 06:53:28;;;;;;;0.50;0.40;;;20.70;52.90;;;;;;6267297;28;20483;-69
2022/05/12 06:56:30;;;;;;;0.55;0.50;;;20.70;52.80;;;;;;6266085;28;20029;-70
2022/05/12 06:59:31;;;;;;;1.05;0.50;;;20.80;52.80;;;;;;6267285;28;20013;-69
2022/05/12 07:02:31;;;;;;;2.85;0.50;;;20.80;53.20;;;;;;6267269;28;20036;-69
2022/05/12 07:05:32;;;;;;;0.52;0.43;;;20.80;52.90;;;;;;6260489;28;20039;-69
2022/05/12 07:08:43;;;;;;;0.40;0.40;;;20.80;52.90;;;;;;6267140;28;20024;-70
2022/05/12 07:11:44;;;;;;;0.88;0.50;;;20.80;53.00;;;;;;6267220;28;20451;-69
2022/05/12 07:14:44;;;;;;;0.30;0.30;;;20.70;53.00;;;;;;6266253;28;20083;-68
2022/05/12 07:17:45;;;;;;;0.40;0.40;;;20.70;53.00;;;;;;6266265;28;20120;-69
2022/05/12 07:27:24;;;;;;;0.75;0.57;;;20.70;53.00;;;;;;6269413;28;20060;-69
2022/05/12 07:31:00;;;;;;;0.40;0.40;;;20.70;53.00;;;;;;6271999;28;20051;-69
2022/05/12 07:33:46;;;;;;;1.63;0.60;;;20.70;53.00;;;;;;6272058;28;20032;-69
2022/05/12 07:36:51;;;;;;;0.43;0.43;;;20.70;53.00;;;;;;6254496;28;20025;-69
2022/05/12 07:39:51;;;;;;;0.63;0.60;;;20.70;53.00;;;;;;6250567;28;20025;-72
2022/05/12 07:42:52;;;;;;;0.70;0.60;;;20.70;53.00;;;;;;6272009;28;20096;-69
2022/05/12 07:45:53;;;;;;;1.17;0.70;;;20.70;53.00;;;;;;6270058;28;20099;-70
2022/05/12 07:48:55;;;;;;;1.10;0.60;;;20.70;53.00;;;;;;6272032;28;20021;-69
2022/05/12 07:51:55;;;;;;;0.45;0.45;;;20.70;53.00;;;;;;6267989;28;20023;-69
2022/05/12 07:54:58;;;;;;;0.57;0.38;;;20.70;53.10;;;;;;6242467;28;20013;-69
2022/05/12 07:58:00;;;;;;;0.50;0.40;;;20.70;53.00;;;;;;6271521;28;20625;-69
2022/05/12 08:01:00;;;;;;;1.55;0.77;;;20.70;53.10;;;;;;6253206;28;20583;-69
2022/05/12 08:04:01;;;;;;;0.60;0.50;;;20.70;53.00;;;;;;6271331;28;20025;-69
2022/05/12 08:07:02;;;;;;;0.63;0.60;;;20.70;53.00;;;;;;6246870;28;20032;-71
2022/05/12 08:10:05;;;;;;;1.95;0.60;;;20.70;53.10;;;;;;6271213;28;20045;-69
2022/05/12 08:13:07;;;;;;;0.60;0.50;;;20.70;53.10;;;;;;6270948;28;20453;-70
2022/05/12 08:16:08;;;;;;;0.40;0.40;;;20.70;53.10;;;;;;6271429;28;20559;-69
2022/05/12 08:19:10;;;;;;;1.02;0.52;;;20.70;53.10;;;;;;6271079;28;20492;-68
2022/05/12 08:22:10;;;;;;;0.65;0.40;;;20.70;53.10;;;;;;6271435;28;20029;-69
2022/05/12 08:25:12;;;;;;;0.73;0.60;;;20.70;53.10;;;;;;6270800;28;20029;-70
2022/05/12 08:28:16;;;;;;;0.75;0.47;;;20.70;53.10;;;;;;6252812;28;20021;-70
2022/05/12 08:31:24;;;;;;;0.77;0.40;;;20.70;53.10;;;;;;6252684;28;20025;-69
2022/05/12 08:34:25;;;;;;;0.57;0.40;;;20.70;53.00;;;;;;6270916;28;20031;-70
2022/05/12 08:37:27;;;;;;;0.45;0.40;;;20.70;53.10;;;;;;6252292;28;20037;-69
2022/05/12 08:40:30;;;;;;;0.40;0.40;;;20.70;53.10;;;;;;6270540;28;20033;-70
2022/05/12 08:43:43;;;;;;;0.63;0.50;;;20.70;53.00;;;;;;6270542;28;20629;-69
2022/05/12 08:46:45;;;;;;;0.75;0.47;;;20.70;53.10;;;;;;6270177;28;20024;-71
2022/05/12 08:49:50;;;;;;;0.73;0.57;;;20.70;53.10;;;;;;6270626;28;20551;-69
2022/05/12 08:52:59;;;;;;;0.70;0.43;;;20.70;53.00;;;;;;6252452;28;20028;-71
2022/05/12 08:56:00;;;;;;;3.05;0.50;;;20.70;53.10;;;;;;6245191;28;20119;-69
2022/05/12 08:59:02;;;;;;;0.52;0.50;;;20.70;53.00;;;;;;6252211;28;20074;-69
2022/05/12 09:02:37;;;;;;;2.97;0.40;;;20.70;53.00;;;;;;6270393;28;20025;-69
2022/05/12 09:05:46;;;;;;;0.60;0.47;;;20.70;53.20;;;;;;6269791;28;20025;-70
2022/05/12 09:09:10;;;;;;;3.78;0.60;;;20.70;53.30;;;;;;6268418;28;20064;-71
2022/05/12 09:12:28;;;;;;;1.35;0.70;;;20.80;53.50;;;;;;6263110;28;20108;-70
2022/05/12 09:15:35;;;;;;;3.13;0.52;;;20.70;53.30;;;;;;6269761;28;20383;-70
2022/05/12 09:18:36;;;;;;;0.40;0.40;;;20.80;53.30;;;;;;6251948;28;20523;-70
2022/05/12 09:21:37;;;;;;;0.77;0.55;;;20.70;53.20;;;;;;6251242;28;20075;-70
2022/05/12 09:24:38;;;;;;;1.88;0.40;;;20.70;53.20;;;;;;6269838;28;20067;-71
2022/05/12 09:27:40;;;;;;;0.60;0.47;;;20.70;53.20;;;;;;6269654;28;20096;-69
2022/05/12 09:30:41;;;;;;;0.38;0.35;;;20.70;53.30;;;;;;6251707;28;20025;-69
2022/05/12 09:33:42;;;;;;;0.70;0.70;;;20.70;53.30;;;;;;6269196;28;20051;-69
2022/05/12 09:36:42;;;;;;;0.88;0.50;;;20.70;53.20;;;;;;6263497;28;20647;-70
2022/05/12 09:39:44;;;;;;;0.73;0.60;;;20.70;53.20;;;;;;6252871;28;20060;-69
2022/05/12 09:42:53;;;;;;;0.55;0.50;;;20.70;53.20;;;;;;6226366;28;20033;-70
2022/05/12 09:46:07;;;;;;;0.50;0.50;;;20.70;53.30;;;;;;6253686;28;20415;-70
2022/05/12 09:49:21;;;;;;;2.80;0.87;;;20.70;53.10;;;;;;6250763;28;20025;-72
2022/05/12 09:52:37;;;;;;;0.55;0.55;;;20.70;53.20;;;;;;6251291;28;20029;-71
2022/05/12 09:55:59;;;;;;;0.38;0.35;;;20.70;53.20;;;;;;6268784;28;20036;-70
2022/05/12 09:59:14;;;;;;;1.63;0.60;;;20.70;53.20;;;;;;6250844;28;20025;-71
2022/05/12 10:07:53;;;;;;;;;;;20.70;53.20;;;;;;6251414;28;20033;-70
2022/05/12 10:09:23;;;;;;;1.48;0.60;;;20.70;53.20;;;;;;6267923;28;20053;-71
2022/05/12 10:12:30;;;;;;;1.17;0.30;;;20.70;53.20;;;;;;6269194;28;20051;-71
2022/05/12 10:15:36;;;;;;;1.05;0.60;;;20.70;53.20;;;;;;6251151;28;20032;-71
2022/05/12 10:18:43;;;;;;;0.63;0.55;;;20.70;53.30;;;;;;6269153;28;20611;-71
2022/05/12 10:21:57;;;;;;;0.85;0.45;;;20.70;53.20;;;;;;6269061;28;20800;-71
2022/05/12 10:25:01;;;;;;;0.40;0.40;;;20.70;53.20;;;;;;6269109;28;20027;-68
2022/05/12 10:28:20;;;;;;;0.60;0.40;;;20.70;53.20;;;;;;6250081;28;20119;-68
2022/05/12 10:31:32;;;;;;;0.80;0.60;;;20.70;53.10;;;;;;6267728;28;20021;-67
2022/05/12 10:35:03;;;;;;;0.60;0.47;;;20.70;53.20;;;;;;6249715;28;20037;-68
2022/05/12 10:38:34;;;;;;;0.50;0.50;;;20.70;53.20;;;;;;6250062;28;20022;-66
2022/05/12 10:41:39;;;;;;;0.60;0.47;;;20.70;53.20;;;;;;6268046;28;20032;-66
2022/05/12 10:45:07;;;;;;;0.47;0.47;;;20.70;53.20;;;;;;6249332;28;20440;-67
2022/05/12 10:48:13;;;;;;;0.50;0.40;;;20.70;53.20;;;;;;6262086;28;20038;-68
2022/05/12 10:51:50;;;;;;;0.60;0.50;;;20.70;53.20;;;;;;6267695;28;20031;-68
2022/05/12 10:54:57;;;;;;;1.40;0.60;;;20.70;53.20;;;;;;6268171;28;20021;-68
2022/05/12 10:58:26;;;;;;;0.68;0.50;;;20.60;53.10;;;;;;6267348;28;20072;-68
2022/05/12 11:01:53;;;;;;;0.65;0.40;;;20.70;53.20;;;;;;6267092;28;20013;-66
2022/05/12 11:05:10;;;;;;;0.95;0.50;;;20.70;53.30;;;;;;6266660;28;20088;-67
2022/05/12 11:08:29;;;;;;;0.60;0.40;;;20.60;53.10;;;;;;6242594;28;20017;-66
2022/05/12 11:11:40;;;;;;;0.95;0.47;;;20.70;53.20;;;;;;6242601;28;20033;-66
2022/05/12 11:14:53;;;;;;;0.60;0.47;;;20.60;53.10;;;;;;6245567;28;20025;-67
2022/05/12 11:18:04;;;;;;;0.47;0.40;;;20.70;53.20;;;;;;6266764;28;20021;-66
2022/05/12 11:21:18;;;;;;;0.98;0.50;;;20.70;53.50;;;;;;6250559;28;20058;-66
2022/05/12 11:24:24;;;;;;;0.50;0.50;;;20.70;53.40;;;;;;6248986;28;20052;-66
2022/05/12 11:27:50;;;;;;;0.68;0.50;;;20.70;53.20;;;;;;6266875;28;20040;-66
2022/05/12 11:31:04;;;;;;;0.90;0.60;;;20.70;53.20;;;;;;6266722;28;20069;-67
2022/05/12 11:34:08;;;;;;;0.50;0.50;;;20.70;53.10;;;;;;6266735;28;20036;-67
2022/05/12 11:37:30;;;;;;;0.82;0.50;;;20.70;53.20;;;;;;6266968;28;20099;-66
2022/05/12 11:40:44;;;;;;;0.95;0.80;;;20.70;53.20;;;;;;6248498;28;20044;-67
2022/05/12 11:47:43;;;;;;;1.85;0.50;;;20.70;53.10;;;;;;6241468;28;20061;-67
2022/05/12 11:50:49;;;;;;;0.63;0.40;;;20.70;53.10;;;;;;6262388;28;20672;-67
2022/05/12 11:53:59;;;;;;;1.23;0.60;;;20.70;53.10;;;;;;6262275;28;20049;-66
2022/05/12 11:57:03;;;;;;;0.95;0.40;;;20.70;53.20;;;;;;6248520;28;20025;-66
2022/05/12 12:00:11;;;;;;;3.83;0.60;;;20.70;53.10;;;;;;6247822;28;20395;-66
2022/05/12 12:03:22;;;;;;;0.50;0.47;;;20.70;53.10;;;;;;6265003;28;20192;-66
2022/05/12 12:06:50;;;;;;;0.73;0.50;;;20.70;53.00;;;;;;6252897;28;20022;-67
2022/05/12 12:09:55;;;;;;;0.63;0.63;;;20.70;53.00;;;;;;6237039;28;20069;-66
2022/05/12 12:13:00;;;;;;;0.50;0.50;;;20.70;52.90;;;;;;6238546;28;20021;-67
2022/05/12 12:16:09;;;;;;;;;;;20.70;53.00;;;;;;6267371;28;20043;-66
2022/05/12 12:19:43;;;;;;;0.85;0.40;;;20.70;52.90;;;;;;6270770;28;19909;-66
2022/05/12 12:22:51;;;;;;;0.60;0.50;;;20.70;52.90;;;;;;6252902;28;20052;-66
2022/05/12 12:26:24;;;;;;;0.47;0.40;;;20.70;52.80;;;;;;6270563;28;20035;-66
2022/05/12 12:29:45;;;;;;;0.40;0.40;;;20.70;52.80;;;;;;6269860;28;20104;-66
2022/05/12 12:33:07;;;;;;;0.47;0.43;;;20.70;52.80;;;;;;6252161;28;20056;-66
2022/05/12 12:36:17;;;;;;;0.40;0.40;;;20.70;52.80;;;;;;6252435;28;20078;-67
2022/05/12 12:39:46;;;;;;;1.70;0.57;;;20.70;52.80;;;;;;6270449;28;20018;-67
2022/05/12 12:42:47;;;;;;;1.20;0.73;;;20.70;52.70;;;;;;6270483;28;20666;-67
2022/05/12 12:45:52;;;;;;;0.98;0.47;;;20.70;52.40;;;;;;6270039;28;20029;-67
2022/05/12 12:49:35;;;;;;;0.40;0.30;;;20.70;52.70;;;;;;6252199;28;20047;-66
2022/05/12 12:52:40;;;;;;;1.30;0.47;;;20.70;52.70;;;;;;6246783;28;20052;-67
2022/05/12 12:59:26;;;;;;;0.43;0.40;;;20.70;52.80;;;;;;6269452;28;20056;-66
2022/05/12 13:02:40;;;;;;;1.75;0.60;;;20.70;52.80;;;;;;6268759;28;20101;-70
2022/05/12 13:05:41;;;;;;;2.00;0.63;;;20.70;52.80;;;;;;6268892;28;20062;-65
2022/05/12 13:08:42;;;;;;;1.95;0.60;;;20.70;52.80;;;;;;6267160;28;20048;-66
2022/05/12 13:11:43;;;;;;;1.08;0.50;;;20.70;52.80;;;;;;6268932;28;20036;-67
2022/05/12 13:14:45;;;;;;;0.50;0.40;;;20.70;52.80;;;;;;6268132;28;20025;-67
2022/05/12 13:17:54;;;;;;;1.23;0.60;;;20.70;52.80;;;;;;6250799;28;20040;-67
2022/05/12 13:20:56;;;;;;;0.93;0.50;;;20.70;52.90;;;;;;6268192;28;20492;-66
2022/05/12 13:24:00;;;;;;;1.67;0.50;;;20.70;52.80;;;;;;6249827;28;20028;-67
2022/05/12 13:27:09;;;;;;;0.73;0.40;;;20.70;52.90;;;;;;6250322;28;20013;-67
2022/05/12 13:30:19;;;;;;;1.10;0.60;;;20.70;52.90;;;;;;6260013;28;20029;-67
2022/05/12 13:33:26;;;;;;;1.40;0.60;;;20.70;53.20;;;;;;6226021;28;20030;-67
2022/05/12 13:36:32;;;;;;;1.33;0.60;;;20.70;52.90;;;;;;6243810;28;20739;-66
2022/05/12 13:39:50;;;;;;;0.55;0.40;;;20.70;52.90;;;;;;6243743;28;20029;-66
2022/05/12 13:42:55;;;;;;;1.15;0.50;;;20.70;52.90;;;;;;6225437;28;20025;-67
2022/05/12 13:46:17;;;;;;;0.90;0.50;;;20.70;52.90;;;;;;6243463;28;20021;-67
2022/05/12 13:49:37;;;;;;;0.47;0.38;;;20.70;52.90;;;;;;6239830;28;20026;-67
2022/05/12 13:52:47;;;;;;;0.60;0.40;;;20.70;53.00;;;;;;6265674;28;20021;-64
2022/05/12 13:56:14;;;;;;;0.75;0.50;;;20.70;52.90;;;;;;6268080;28;20025;-67
2022/05/12 13:59:29;;;;;;;0.57;0.40;;;20.70;52.90;;;;;;6266872;28;20112;-67
2022/05/12 14:02:39;;;;;;;1.08;0.60;;;20.70;53.00;;;;;;6267400;28;20025;-66
2022/05/12 14:05:40;;;;;;;0.57;0.40;;;20.70;53.00;;;;;;6267177;28;20428;-67
2022/05/12 14:08:41;;;;;;;0.60;0.40;;;20.70;53.00;;;;;;6266780;28;20250;-67
2022/05/12 14:11:42;;;;;;;0.47;0.40;;;20.70;53.00;;;;;;6267514;28;20028;-67
2022/05/12 14:21:23;;;;;;;0.68;0.40;;;20.70;53.00;;;;;;6260896;28;20028;-67
2022/05/12 14:24:27;;;;;;;1.58;0.43;;;20.70;53.00;;;;;;6265827;28;20053;-67
2022/05/12 14:27:28;;;;;;;0.73;0.40;;;20.70;53.00;;;;;;6267664;28;20021;-66
2022/05/12 14:30:28;;;;;;;0.90;0.50;;;20.70;53.00;;;;;;6266700;28;20452;-67
2022/05/12 14:33:31;;;;;;;0.70;0.50;;;20.70;53.00;;;;;;6267581;28;20052;-67
2022/05/12 14:36:32;;;;;;;0.93;0.30;;;20.70;53.10;;;;;;6266721;28;20824;-67
2022/05/12 14:39:34;;;;;;;1.63;0.52;;;20.60;52.90;;;;;;6267080;28;20090;-66
2022/05/12 14:42:34;;;;;;;0.63;0.40;;;20.70;53.00;;;;;;6266926;28;20032;-67
2022/05/12 14:45:35;;;;;;;0.40;0.40;;;20.70;53.10;;;;;;6266808;28;20029;-67
2022/05/12 14:48:41;;;;;;;1.27;0.60;;;20.70;53.00;;;;;;6266935;28;20032;-67
2022/05/12 14:51:43;;;;;;;0.77;0.40;;;20.70;53.00;;;;;;6248338;28;20488;-67
2022/05/12 14:54:46;;;;;;;0.32;0.32;;;20.60;53.00;;;;;;6266732;28;20025;-67
2022/05/12 14:57:47;;;;;;;0.30;0.30;;;20.70;53.10;;;;;;6265647;28;20025;-67
2022/05/12 15:00:47;;;;;;;0.98;0.57;;;20.70;53.80;;;;;;6265090;28;20119;-67
2022/05/12 15:03:53;;;;;;;0.20;0.20;;;20.70;53.10;;;;;;6266325;28;20021;-67
2022/05/12 15:06:54;;;;;;;1.48;0.47;;;20.70;53.10;;;;;;6249079;28;20112;-66
2022/05/12 15:09:55;;;;;;;0.77;0.60;;;20.70;53.20;;;;;;6240984;28;20193;-66
2022/05/12 15:12:55;;;;;;;2.20;0.50;;;20.70;53.10;;;;;;6248172;28;20121;-66
2022/05/12 15:15:56;;;;;;;0.35;0.30;;;20.70;53.10;;;;;;6265752;28;20523;-66
2022/05/12 15:18:58;;;;;;;0.70;0.55;;;20.70;53.10;;;;;;6266513;28;20032;-67
2022/05/12 15:22:01;;;;;;;0.73;0.40;;;20.70;53.20;;;;;;6248154;28;20028;-67
2022/05/12 15:25:03;;;;;;;0.40;0.40;;;20.70;53.10;;;;;;6248467;28;20677;-67
2022/05/12 15:28:06;;;;;;;0.82;0.38;;;20.70;53.20;;;;;;6266589;28;20100;-67
2022/05/12 15:31:07;;;;;;;0.40;0.40;;;20.70;53.10;;;;;;6266360;28;20056;-68
2022/05/12 15:34:07;;;;;;;1.15;0.60;;;20.70;53.20;;;;;;6266585;28;20025;-67
2022/05/12 15:37:10;;;;;;;0.82;0.57;;;20.70;53.10;;;;;;6266264;28;20020;-67
2022/05/12 15:40:14;;;;;;;0.80;0.50;;;20.70;53.10;;;;;;6266405;28;20025;-67
2022/05/12 15:43:14;;;;;;;0.57;0.52;;;20.70;53.80;;;;;;6266123;28;20124;-67
2022/05/12 15:46:23;;;;;;;0.40;0.30;;;20.70;53.00;;;;;;6265895;28;20669;-66
2022/05/12 15:49:28;;;;;;;0.30;0.30;;;20.70;53.10;;;;;;6251410;28;20017;-67
2022/05/12 15:52:29;;;;;;;0.65;0.40;;;20.70;53.10;;;;;;6253114;28;20024;-67
2022/05/12 15:55:30;;;;;;;0.50;0.40;;;20.60;53.00;;;;;;6270612;28;20399;-67
2022/05/12 15:58:30;;;;;;;1.60;0.50;;;20.60;53.00;;;;;;6253245;28;20470;-67
2022/05/12 16:01:31;;;;;;;0.52;0.40;;;20.60;53.10;;;;;;6270944;28;20033;-66
2022/05/12 16:04:32;;;;;;;1.25;0.50;;;20.70;53.10;;;;;;6252781;28;20067;-67
2022/05/12 16:07:32;;;;;;;0.73;0.40;;;20.70;53.10;;;;;;6244752;28;20516;-67
2022/05/12 16:10:35;;;;;;;0.50;0.50;;;20.70;53.10;;;;;;6246139;28;20079;-67
2022/05/12 16:13:38;;;;;;;0.40;0.40;;;20.70;53.10;;;;;;6259606;28;20033;-67
2022/05/12 16:16:38;;;;;;;0.40;0.40;;;20.70;53.10;;;;;;6252780;28;20127;-67
2022/05/12 16:19:39;;;;;;;0.57;0.40;;;20.70;53.10;;;;;;6253461;28;20025;-67
2022/05/12 16:22:43;;;;;;;0.40;0.40;;;20.60;53.00;;;;;;6253292;28;20115;-67
2022/05/12 16:25:57;;;;;;;0.63;0.52;;;20.70;53.10;;;;;;6252356;28;20032;-67
2022/05/12 16:28:58;;;;;;;0.50;0.30;;;20.70;53.10;;;;;;6268897;28;20021;-66
2022/05/12 16:31:59;;;;;;;0.45;0.43;;;20.70;53.10;;;;;;6269257;28;20094;-66
2022/05/12 16:35:02;;;;;;;0.40;0.40;;;20.70;53.10;;;;;;6268563;28;20028;-66